createdAt,value
2019-05-10T00:37:49.722Z,12.31
2019-05-10T00:37:50.295Z,12.41
2019-05-10T00:37:50.894Z,12.27
2019-05-10T00:37:51.493Z,12.34
2019-05-10T00:37:52.093Z,12.27
2019-05-10T00:37:52.692Z,12.30
2019-05-10T00:38:47.374Z,12.34
2019-05-10T00:38:47.953Z,12.34
2019-05-10T00:38:48.548Z,12.42
2019-05-10T00:38:49.146Z,12.27
2019-05-10T00:38:49.745Z,12.31
2019-05-10T00:38:50.346Z,12.30
2019-05-10T00:39:45.826Z,12.42
2019-05-10T00:39:46.426Z,12.33
2019-05-10T00:39:47.016Z,12.29
2019-05-10T00:39:47.616Z,12.33
2019-05-10T00:39:48.221Z,12.44
2019-05-10T00:40:43.473Z,12.39
2019-05-10T00:40:44.071Z,12.44
2019-05-10T00:40:44.670Z,12.44
2019-05-10T00:40:45.271Z,12.34
2019-05-10T00:40:45.870Z,12.44
2019-05-10T00:40:46.469Z,12.45
2019-05-10T00:41:42.047Z,12.41
2019-05-10T00:41:42.648Z,12.29
2019-05-10T00:41:43.243Z,12.30
2019-05-10T00:41:43.843Z,12.29
2019-05-10T00:41:44.445Z,12.31
2019-05-10T00:41:45.044Z,12.34
2019-05-10T00:42:59.668Z,12.37
2019-05-10T00:43:00.269Z,12.33
2019-05-10T00:43:00.865Z,12.39
2019-05-10T00:43:01.463Z,12.44
2019-05-10T00:43:02.062Z,12.44
2019-05-10T00:43:02.664Z,12.45
2019-05-10T00:43:58.268Z,12.39
2019-05-10T00:43:58.842Z,12.44
2019-05-10T00:43:59.437Z,12.34
2019-05-10T00:44:00.039Z,12.44
2019-05-10T00:44:00.637Z,12.46
2019-05-10T00:44:01.238Z,12.46
2019-05-10T00:45:27.432Z,12.29
2019-05-10T00:45:28.030Z,12.34
2019-05-10T00:45:28.629Z,12.39
2019-05-10T00:45:29.235Z,12.38
2019-05-10T00:45:29.829Z,12.46
2019-05-10T00:46:24.369Z,12.38
2019-05-10T00:46:24.965Z,12.44
2019-05-10T00:46:25.566Z,12.41
2019-05-10T00:46:26.165Z,12.46
2019-05-10T00:46:26.766Z,12.41
2019-05-10T00:46:27.366Z,12.34
2019-05-10T00:47:22.021Z,12.48
2019-05-10T00:47:22.617Z,12.44
2019-05-10T00:47:23.215Z,12.34
2019-05-10T00:47:23.816Z,12.42
2019-05-10T00:47:24.416Z,12.41
2019-05-10T00:47:25.017Z,12.39
2019-05-10T00:48:19.671Z,12.38
2019-05-10T00:48:20.293Z,12.44
2019-05-10T00:48:20.867Z,12.46
2019-05-10T00:48:21.468Z,12.41
2019-05-10T00:48:22.067Z,12.44
2019-05-10T00:49:17.349Z,12.42
2019-05-10T00:49:17.923Z,12.41
2019-05-10T00:49:18.523Z,12.41
2019-05-10T00:49:19.123Z,12.42
2019-05-10T00:49:19.722Z,12.41
2019-05-10T00:49:20.325Z,12.44
2019-05-10T00:50:14.466Z,12.49
2019-05-10T00:50:15.063Z,12.54
2019-05-10T00:50:15.662Z,12.54
2019-05-10T00:50:16.264Z,12.51
2019-05-10T00:50:16.866Z,12.51
2019-05-10T00:50:17.462Z,12.45
2019-05-10T00:51:12.730Z,12.51
2019-05-10T00:51:13.327Z,12.52
2019-05-10T00:51:13.928Z,12.51
2019-05-10T00:51:14.528Z,12.59
2019-05-10T00:51:15.126Z,12.52
2019-05-10T00:52:10.382Z,12.52
2019-05-10T00:52:10.981Z,12.52
2019-05-10T00:52:11.599Z,12.60
2019-05-10T00:52:12.178Z,12.57
2019-05-10T00:52:12.777Z,12.54
2019-05-10T00:52:13.376Z,12.60
2019-05-10T00:53:08.033Z,12.52
2019-05-10T00:53:08.632Z,12.49
2019-05-10T00:53:09.233Z,12.54
2019-05-10T00:53:09.829Z,12.66
2019-05-10T00:53:10.427Z,12.63
2019-05-10T00:53:11.030Z,12.60
2019-05-10T00:54:05.708Z,12.59
2019-05-10T00:54:06.283Z,12.57
2019-05-10T00:54:06.882Z,12.60
2019-05-10T00:54:07.482Z,12.67
2019-05-10T00:54:08.082Z,12.64
2019-05-10T00:55:16.720Z,12.56
2019-05-10T00:55:17.702Z,12.62
2019-05-10T00:55:17.706Z,12.69
2019-05-10T00:55:17.849Z,12.63
2019-05-10T00:55:17.953Z,12.64
2019-05-10T00:55:17.966Z,12.60
2019-05-10T00:56:02.012Z,12.54
2019-05-10T00:56:02.614Z,12.69
2019-05-10T00:56:03.210Z,12.54
2019-05-10T00:56:03.813Z,12.59
2019-05-10T00:56:04.409Z,12.57
2019-05-10T00:56:05.009Z,12.57
2019-05-10T00:56:59.563Z,12.60
2019-05-10T00:57:00.159Z,12.57
2019-05-10T00:57:00.760Z,12.63
2019-05-10T00:57:01.359Z,12.70
2019-05-10T00:57:01.959Z,12.69
2019-05-10T00:57:03.158Z,12.56
2019-05-10T00:57:57.214Z,12.64
2019-05-10T00:57:57.810Z,12.67
2019-05-10T00:57:58.413Z,12.59
2019-05-10T00:57:59.011Z,12.60
2019-05-10T00:57:59.611Z,12.62
2019-05-10T00:58:54.890Z,12.64
2019-05-10T00:58:55.462Z,12.67
2019-05-10T00:58:56.063Z,12.70
2019-05-10T00:58:56.662Z,12.69
2019-05-10T00:58:57.262Z,12.69
2019-05-10T00:58:57.862Z,12.70
2019-05-10T00:59:52.517Z,12.64
2019-05-10T00:59:53.117Z,12.75
2019-05-10T00:59:53.733Z,12.69
2019-05-10T00:59:54.317Z,12.69
2019-05-10T00:59:54.915Z,12.69
2019-05-10T00:59:55.523Z,12.70
2019-05-10T01:00:49.659Z,12.79
2019-05-10T01:00:50.257Z,12.79
2019-05-10T01:00:50.856Z,12.75
2019-05-10T01:00:51.464Z,12.77
2019-05-10T01:00:52.060Z,12.82
2019-05-10T01:01:47.923Z,12.74
2019-05-10T01:01:48.526Z,12.78
2019-05-10T01:01:49.120Z,12.70
2019-05-10T01:01:49.735Z,12.77
2019-05-10T01:01:50.321Z,12.78
2019-05-10T01:01:50.930Z,12.78
2019-05-10T01:02:45.575Z,12.75
2019-05-10T01:02:46.176Z,12.82
2019-05-10T01:02:46.774Z,12.84
2019-05-10T01:02:47.378Z,12.85
2019-05-10T01:02:47.971Z,12.88
2019-05-10T01:02:48.572Z,12.84
2019-05-10T01:03:43.260Z,12.89
2019-05-10T01:03:43.825Z,12.81
2019-05-10T01:03:44.423Z,12.79
2019-05-10T01:03:45.026Z,12.89
2019-05-10T01:03:45.621Z,12.87
2019-05-10T01:04:40.370Z,12.88
2019-05-10T01:04:40.965Z,12.85
2019-05-10T01:04:41.588Z,12.87
2019-05-10T01:04:42.165Z,12.85
2019-05-10T01:04:42.764Z,12.95
2019-05-10T01:04:43.365Z,12.81
2019-05-10T01:05:38.636Z,12.85
2019-05-10T01:05:39.230Z,12.89
2019-05-10T01:05:39.829Z,12.85
2019-05-10T01:05:40.431Z,12.89
2019-05-10T01:05:41.029Z,12.84
2019-05-10T01:05:41.629Z,12.93
2019-05-10T01:06:36.285Z,12.89
2019-05-10T01:06:36.881Z,12.99
2019-05-10T01:06:37.484Z,12.99
2019-05-10T01:06:38.083Z,12.95
2019-05-10T01:06:38.686Z,12.84
2019-05-10T01:07:33.937Z,12.99
2019-05-10T01:07:34.534Z,12.99
2019-05-10T01:07:35.133Z,12.96
2019-05-10T01:07:35.732Z,13.04
2019-05-10T01:07:36.336Z,12.97
2019-05-10T01:07:36.933Z,12.99
2019-05-10T01:08:31.589Z,12.99
2019-05-10T01:08:32.188Z,13.03
2019-05-10T01:08:32.784Z,12.87
2019-05-10T01:08:33.385Z,12.97
2019-05-10T01:08:33.984Z,12.99
2019-05-10T01:08:34.585Z,12.96
2019-05-10T01:09:29.263Z,12.95
2019-05-10T01:09:29.839Z,13.04
2019-05-10T01:09:30.442Z,12.99
2019-05-10T01:09:31.038Z,13.00
2019-05-10T01:09:31.637Z,12.93
2019-05-10T01:10:26.381Z,12.96
2019-05-10T01:10:26.977Z,12.99
2019-05-10T01:10:27.578Z,13.09
2019-05-10T01:10:28.179Z,13.06
2019-05-10T01:10:28.777Z,13.04
2019-05-10T01:10:29.377Z,13.06
2019-05-10T01:11:24.737Z,12.95
2019-05-10T01:11:25.244Z,12.96
2019-05-10T01:11:25.844Z,13.07
2019-05-10T01:11:26.443Z,12.99
2019-05-10T01:11:27.048Z,13.07
2019-05-10T01:11:27.642Z,13.02
2019-05-10T01:12:22.298Z,12.99
2019-05-10T01:12:22.898Z,12.99
2019-05-10T01:12:23.492Z,13.03
2019-05-10T01:12:24.109Z,13.03
2019-05-10T01:12:24.693Z,12.97
2019-05-10T01:13:19.949Z,13.03
2019-05-10T01:13:20.549Z,13.00
2019-05-10T01:13:21.147Z,12.92
2019-05-10T01:13:21.746Z,13.00
2019-05-10T01:13:22.349Z,13.00
2019-05-10T01:13:22.984Z,13.03
2019-05-10T01:14:17.628Z,13.06
2019-05-10T01:14:18.198Z,12.99
2019-05-10T01:14:18.798Z,12.96
2019-05-10T01:14:19.398Z,13.03
2019-05-10T01:14:19.997Z,13.03
2019-05-10T01:14:20.602Z,13.06
2019-05-10T01:15:14.741Z,13.00
2019-05-10T01:15:15.340Z,13.03
2019-05-10T01:15:15.939Z,13.02
2019-05-10T01:15:16.540Z,13.00
2019-05-10T01:15:17.141Z,13.04
2019-05-10T01:16:13.009Z,13.03
2019-05-10T01:16:13.604Z,13.02
2019-05-10T01:16:14.204Z,13.07
2019-05-10T01:16:14.806Z,13.06
2019-05-10T01:16:15.404Z,13.04
2019-05-10T01:16:16.005Z,13.07
2019-05-10T01:17:10.660Z,13.04
2019-05-10T01:17:11.255Z,13.11
2019-05-10T01:17:11.856Z,13.03
2019-05-10T01:17:12.486Z,13.04
2019-05-10T01:17:13.055Z,13.02
2019-05-10T01:17:13.656Z,13.09
2019-05-10T01:18:08.312Z,13.03
2019-05-10T01:18:08.909Z,13.06
2019-05-10T01:18:09.508Z,13.12
2019-05-10T01:18:10.121Z,13.12
2019-05-10T01:18:10.708Z,13.06
2019-05-10T01:19:05.476Z,13.15
2019-05-10T01:19:06.049Z,13.09
2019-05-10T01:19:06.650Z,13.09
2019-05-10T01:19:07.249Z,13.07
2019-05-10T01:19:07.849Z,13.14
2019-05-10T01:19:08.448Z,13.09
2019-05-10T01:20:03.719Z,13.04
2019-05-10T01:20:04.319Z,13.14
2019-05-10T01:20:04.914Z,13.15
2019-05-10T01:20:05.513Z,13.11
2019-05-10T01:20:06.117Z,13.17
2019-05-10T01:20:06.713Z,13.11
2019-05-10T01:21:00.859Z,13.12
2019-05-10T01:21:01.456Z,13.12
2019-05-10T01:21:02.056Z,13.15
2019-05-10T01:21:02.653Z,13.18
2019-05-10T01:21:03.254Z,13.18
2019-05-10T01:21:59.122Z,13.11
2019-05-10T01:21:59.720Z,13.11
2019-05-10T01:22:00.320Z,13.09
2019-05-10T01:22:00.923Z,13.21
2019-05-10T01:22:01.521Z,13.12
2019-05-10T01:22:02.120Z,13.18
2019-05-10T01:22:56.775Z,13.17
2019-05-10T01:22:57.370Z,13.17
2019-05-10T01:22:57.970Z,13.15
2019-05-10T01:22:58.575Z,13.22
2019-05-10T01:22:59.173Z,13.15
2019-05-10T01:22:59.773Z,13.15
2019-05-10T01:23:54.461Z,13.20
2019-05-10T01:23:55.022Z,13.11
2019-05-10T01:23:55.626Z,13.17
2019-05-10T01:23:56.223Z,13.18
2019-05-10T01:23:56.822Z,13.11
2019-05-10T01:24:52.106Z,13.11
2019-05-10T01:24:52.673Z,13.21
2019-05-10T01:24:53.274Z,13.22
2019-05-10T01:24:53.877Z,13.20
2019-05-10T01:24:54.474Z,13.12
2019-05-10T01:24:55.074Z,13.20
2019-05-10T01:25:49.732Z,13.14
2019-05-10T01:25:50.327Z,13.21
2019-05-10T01:25:50.926Z,13.20
2019-05-10T01:25:51.527Z,13.20
2019-05-10T01:25:52.130Z,13.21
2019-05-10T01:25:52.732Z,13.18
2019-05-10T01:26:47.381Z,13.14
2019-05-10T01:26:47.979Z,13.20
2019-05-10T01:26:48.578Z,13.20
2019-05-10T01:26:49.178Z,13.18
2019-05-10T01:26:49.778Z,13.20
2019-05-10T01:27:45.033Z,13.18
2019-05-10T01:27:45.630Z,13.21
2019-05-10T01:27:46.232Z,13.22
2019-05-10T01:27:46.832Z,13.20
2019-05-10T01:27:47.429Z,13.27
2019-05-10T01:27:48.029Z,13.20
2019-05-10T01:28:42.683Z,13.17
2019-05-10T01:28:43.282Z,13.21
2019-05-10T01:28:43.885Z,13.17
2019-05-10T01:28:44.482Z,13.18
2019-05-10T01:28:45.081Z,13.11
2019-05-10T01:28:45.682Z,13.22
2019-05-10T01:29:40.360Z,13.25
2019-05-10T01:29:40.937Z,13.22
2019-05-10T01:29:41.533Z,13.21
2019-05-10T01:29:42.133Z,13.22
2019-05-10T01:29:42.733Z,13.25
2019-05-10T01:30:38.058Z,13.20
2019-05-10T01:30:38.585Z,13.20
2019-05-10T01:30:39.185Z,13.20
2019-05-10T01:30:39.784Z,13.27
2019-05-10T01:30:40.394Z,13.20
2019-05-10T01:30:40.985Z,13.21
2019-05-10T01:31:35.649Z,13.22
2019-05-10T01:31:36.240Z,13.22
2019-05-10T01:31:36.837Z,13.20
2019-05-10T01:31:37.437Z,13.27
2019-05-10T01:31:38.037Z,13.22
2019-05-10T01:31:38.636Z,13.24
2019-05-10T01:32:33.291Z,13.22
2019-05-10T01:32:33.890Z,13.24
2019-05-10T01:32:34.491Z,13.27
2019-05-10T01:32:35.089Z,13.20
2019-05-10T01:32:35.688Z,13.29
2019-05-10T01:33:31.867Z,13.21
2019-05-10T01:33:32.467Z,13.27
2019-05-10T01:33:33.061Z,13.22
2019-05-10T01:33:33.661Z,13.25
2019-05-10T01:33:34.261Z,13.30
2019-05-10T01:33:34.862Z,13.29
2019-05-10T01:34:29.438Z,13.21
2019-05-10T01:34:30.016Z,13.22
2019-05-10T01:34:30.619Z,13.21
2019-05-10T01:34:31.211Z,13.22
2019-05-10T01:34:31.812Z,13.29
2019-05-10T01:34:32.410Z,13.21
2019-05-10T01:35:27.070Z,13.27
2019-05-10T01:35:27.663Z,13.25
2019-05-10T01:35:28.265Z,13.24
2019-05-10T01:35:28.862Z,13.30
2019-05-10T01:35:29.462Z,13.20
2019-05-10T01:36:24.717Z,13.25
2019-05-10T01:36:25.317Z,13.22
2019-05-10T01:36:25.915Z,13.32
2019-05-10T01:36:26.514Z,13.24
2019-05-10T01:36:27.114Z,13.29
2019-05-10T01:36:27.718Z,13.24
2019-05-10T01:37:22.369Z,13.27
2019-05-10T01:37:22.967Z,13.22
2019-05-10T01:37:23.566Z,13.30
2019-05-10T01:37:24.165Z,13.29
2019-05-10T01:37:24.766Z,13.30
2019-05-10T01:37:25.365Z,13.27
2019-05-10T01:38:20.022Z,13.24
2019-05-10T01:38:20.616Z,13.25
2019-05-10T01:38:21.221Z,13.25
2019-05-10T01:38:21.818Z,13.24
2019-05-10T01:38:22.416Z,13.24
2019-05-10T01:39:17.708Z,13.22
2019-05-10T01:39:18.270Z,13.27
2019-05-10T01:39:18.867Z,13.24
2019-05-10T01:39:19.470Z,13.24
2019-05-10T01:39:20.067Z,13.20
2019-05-10T01:39:20.672Z,13.21
2019-05-10T01:40:15.325Z,13.25
2019-05-10T01:40:15.921Z,13.18
2019-05-10T01:40:16.573Z,13.30
2019-05-10T01:40:17.122Z,13.29
2019-05-10T01:40:17.720Z,13.18
2019-05-10T01:40:18.329Z,13.29
2019-05-10T01:41:12.977Z,13.24
2019-05-10T01:41:13.573Z,13.24
2019-05-10T01:41:14.179Z,13.29
2019-05-10T01:41:14.772Z,13.30
2019-05-10T01:41:15.375Z,13.25
2019-05-10T01:42:10.628Z,13.27
2019-05-10T01:42:11.225Z,13.30
2019-05-10T01:42:11.839Z,13.20
2019-05-10T01:42:12.423Z,13.29
2019-05-10T01:42:13.023Z,13.27
2019-05-10T01:42:13.622Z,13.30
2019-05-10T01:43:08.279Z,13.24
2019-05-10T01:43:08.878Z,13.25
2019-05-10T01:43:09.477Z,13.25
2019-05-10T01:43:10.163Z,13.24
2019-05-10T01:43:10.676Z,13.27
2019-05-10T01:43:11.279Z,13.24
2019-05-10T01:44:05.944Z,13.21
2019-05-10T01:44:06.528Z,13.24
2019-05-10T01:44:07.126Z,13.22
2019-05-10T01:44:07.728Z,13.25
2019-05-10T01:44:08.329Z,13.22
2019-05-10T01:45:03.613Z,13.20
2019-05-10T01:45:04.179Z,13.24
2019-05-10T01:45:04.780Z,13.27
2019-05-10T01:45:05.379Z,13.27
2019-05-10T01:45:05.981Z,13.25
2019-05-10T01:45:06.580Z,13.21
2019-05-10T01:46:01.235Z,13.27
2019-05-10T01:46:01.831Z,13.25
2019-05-10T01:46:02.433Z,13.25
2019-05-10T01:46:03.033Z,13.25
2019-05-10T01:46:03.637Z,13.29
2019-05-10T01:46:04.232Z,13.33
2019-05-10T01:46:58.887Z,13.20
2019-05-10T01:46:59.482Z,13.29
2019-05-10T01:47:00.085Z,13.29
2019-05-10T01:47:00.683Z,13.27
2019-05-10T01:47:01.287Z,13.24
2019-05-10T01:47:56.539Z,13.21
2019-05-10T01:47:57.136Z,13.27
2019-05-10T01:47:57.736Z,13.30
2019-05-10T01:47:58.335Z,13.27
2019-05-10T01:47:58.936Z,13.21
2019-05-10T01:47:59.538Z,13.24
2019-05-10T01:48:54.190Z,13.21
2019-05-10T01:48:54.787Z,13.29
2019-05-10T01:48:55.387Z,13.22
2019-05-10T01:48:55.986Z,13.27
2019-05-10T01:48:56.587Z,13.24
2019-05-10T01:48:57.189Z,13.27
2019-05-10T01:49:51.865Z,13.22
2019-05-10T01:49:52.443Z,13.21
2019-05-10T01:49:53.039Z,13.29
2019-05-10T01:49:53.642Z,13.27
2019-05-10T01:49:54.239Z,13.32
2019-05-10T01:50:49.493Z,13.30
2019-05-10T01:50:50.170Z,13.24
2019-05-10T01:50:50.691Z,13.29
2019-05-10T01:50:51.291Z,13.29
2019-05-10T01:50:51.890Z,13.27
2019-05-10T01:50:52.491Z,13.27
2019-05-10T01:51:47.148Z,13.22
2019-05-10T01:51:47.742Z,13.27
2019-05-10T01:51:48.342Z,13.33
2019-05-10T01:51:48.942Z,13.30
2019-05-10T01:51:49.541Z,13.30
2019-05-10T01:51:50.141Z,13.22
2019-05-10T01:52:44.797Z,13.29
2019-05-10T01:52:45.394Z,13.25
2019-05-10T01:52:45.993Z,13.25
2019-05-10T01:52:46.593Z,13.29
2019-05-10T01:52:47.194Z,13.32
2019-05-10T01:53:42.470Z,13.30
2019-05-10T01:53:43.044Z,13.30
2019-05-10T01:53:43.643Z,13.36
2019-05-10T01:53:44.244Z,13.33
2019-05-10T01:53:44.843Z,13.37
2019-05-10T01:53:45.444Z,13.33
2019-05-10T01:54:40.129Z,13.25
2019-05-10T01:54:40.696Z,13.30
2019-05-10T01:54:41.298Z,13.32
2019-05-10T01:54:41.897Z,13.30
2019-05-10T01:54:42.496Z,13.30
2019-05-10T01:54:43.098Z,13.29
2019-05-10T01:55:50.741Z,13.27
2019-05-10T01:55:50.823Z,13.24
2019-05-10T01:55:51.523Z,13.27
2019-05-10T01:55:51.560Z,13.30
2019-05-10T01:55:51.725Z,13.29
2019-05-10T01:56:35.405Z,13.24
2019-05-10T01:56:36.001Z,13.29
2019-05-10T01:56:36.601Z,13.24
2019-05-10T01:56:37.203Z,13.30
2019-05-10T01:56:37.800Z,13.30
2019-05-10T01:56:38.400Z,13.27
2019-05-10T01:57:33.056Z,13.24
2019-05-10T01:57:33.652Z,13.24
2019-05-10T01:57:34.252Z,13.22
2019-05-10T01:57:34.854Z,13.24
2019-05-10T01:57:35.454Z,13.30
2019-05-10T01:57:36.053Z,13.24
2019-05-10T01:58:30.707Z,13.21
2019-05-10T01:58:31.307Z,13.22
2019-05-10T01:58:31.909Z,13.29
2019-05-10T01:58:32.505Z,13.25
2019-05-10T01:58:33.105Z,13.21
2019-05-10T01:59:28.385Z,13.14
2019-05-10T01:59:28.957Z,13.20
2019-05-10T01:59:29.557Z,13.20
2019-05-10T01:59:30.157Z,13.21
2019-05-10T01:59:30.756Z,13.21
2019-05-10T01:59:31.356Z,13.21
2019-05-10T02:00:26.057Z,13.11
2019-05-10T02:00:26.607Z,13.21
2019-05-10T02:00:27.205Z,13.18
2019-05-10T02:00:27.809Z,13.27
2019-05-10T02:00:28.406Z,13.21
2019-05-10T02:00:29.006Z,13.11
2019-05-10T02:01:23.663Z,13.15
2019-05-10T02:01:24.259Z,13.22
2019-05-10T02:01:24.860Z,13.09
2019-05-10T02:01:25.460Z,13.22
2019-05-10T02:01:26.059Z,13.21
2019-05-10T02:02:21.314Z,13.21
2019-05-10T02:02:21.913Z,13.15
2019-05-10T02:02:22.514Z,13.21
2019-05-10T02:02:23.113Z,13.24
2019-05-10T02:02:23.711Z,13.24
2019-05-10T02:02:24.312Z,13.18
2019-05-10T02:03:18.967Z,13.18
2019-05-10T02:03:19.563Z,13.21
2019-05-10T02:03:20.164Z,13.22
2019-05-10T02:03:20.763Z,13.21
2019-05-10T02:03:21.362Z,13.24
2019-05-10T02:03:21.963Z,13.24
2019-05-10T02:04:17.646Z,13.21
2019-05-10T02:04:17.969Z,13.14
2019-05-10T02:04:18.118Z,13.21
2019-05-10T02:04:18.414Z,13.25
2019-05-10T02:04:19.016Z,13.22
2019-05-10T02:05:14.294Z,13.15
2019-05-10T02:05:14.866Z,13.21
2019-05-10T02:05:15.467Z,13.21
2019-05-10T02:05:16.067Z,13.14
2019-05-10T02:05:16.667Z,13.18
2019-05-10T02:05:17.266Z,13.24
2019-05-10T02:06:11.921Z,13.20
2019-05-10T02:06:12.518Z,13.18
2019-05-10T02:06:13.119Z,13.21
2019-05-10T02:06:13.717Z,13.21
2019-05-10T02:06:14.317Z,13.20
2019-05-10T02:06:14.920Z,13.24
2019-05-10T02:07:09.574Z,13.11
2019-05-10T02:07:10.173Z,13.17
2019-05-10T02:07:10.795Z,13.12
2019-05-10T02:07:11.370Z,13.12
2019-05-10T02:07:11.970Z,13.21
2019-05-10T02:08:07.226Z,13.12
2019-05-10T02:08:07.823Z,13.12
2019-05-10T02:08:08.421Z,13.12
2019-05-10T02:08:09.022Z,13.21
2019-05-10T02:08:09.622Z,13.15
2019-05-10T02:08:10.222Z,13.11
2019-05-10T02:09:04.877Z,13.12
2019-05-10T02:09:05.501Z,13.14
2019-05-10T02:09:06.073Z,13.17
2019-05-10T02:09:06.673Z,13.15
2019-05-10T02:09:07.274Z,13.18
2019-05-10T02:09:07.874Z,13.17
2019-05-10T02:10:02.552Z,13.12
2019-05-10T02:10:03.125Z,13.22
2019-05-10T02:10:03.729Z,13.12
2019-05-10T02:10:04.325Z,13.12
2019-05-10T02:10:04.926Z,13.12
2019-05-10T02:11:00.182Z,13.22
2019-05-10T02:11:00.777Z,13.25
2019-05-10T02:11:01.377Z,13.21
2019-05-10T02:11:01.976Z,13.15
2019-05-10T02:11:02.579Z,13.11
2019-05-10T02:11:03.181Z,13.15
2019-05-10T02:11:57.833Z,13.09
2019-05-10T02:11:58.431Z,13.18
2019-05-10T02:11:59.028Z,13.15
2019-05-10T02:11:59.629Z,13.20
2019-05-10T02:12:00.234Z,13.12
2019-05-10T02:12:00.827Z,13.12
2019-05-10T02:12:55.486Z,13.12
2019-05-10T02:12:56.081Z,13.07
2019-05-10T02:12:56.681Z,13.14
2019-05-10T02:12:57.288Z,13.15
2019-05-10T02:12:57.879Z,13.12
2019-05-10T02:13:53.134Z,13.07
2019-05-10T02:13:53.736Z,13.07
2019-05-10T02:13:54.334Z,13.11
2019-05-10T02:13:54.934Z,13.11
2019-05-10T02:13:55.531Z,13.17
2019-05-10T02:13:56.134Z,13.11
2019-05-10T02:14:50.811Z,13.07
2019-05-10T02:14:51.386Z,13.09
2019-05-10T02:14:51.985Z,13.09
2019-05-10T02:14:52.585Z,13.12
2019-05-10T02:14:53.183Z,13.15
2019-05-10T02:14:53.797Z,13.14
2019-05-10T02:15:48.439Z,13.07
2019-05-10T02:15:49.038Z,13.11
2019-05-10T02:15:49.636Z,13.07
2019-05-10T02:15:50.235Z,13.04
2019-05-10T02:15:50.836Z,13.04
2019-05-10T02:16:46.090Z,13.06
2019-05-10T02:16:46.689Z,13.07
2019-05-10T02:16:47.294Z,13.02
2019-05-10T02:16:47.888Z,13.09
2019-05-10T02:16:48.492Z,13.02
2019-05-10T02:16:49.087Z,13.06
2019-05-10T02:17:43.741Z,13.12
2019-05-10T02:17:44.338Z,13.07
2019-05-10T02:17:44.939Z,13.12
2019-05-10T02:17:45.538Z,13.09
2019-05-10T02:17:46.137Z,13.07
2019-05-10T02:17:46.738Z,13.06
2019-05-10T02:18:41.394Z,13.02
2019-05-10T02:18:41.992Z,13.07
2019-05-10T02:18:42.592Z,13.07
2019-05-10T02:18:43.190Z,13.15
2019-05-10T02:18:43.790Z,13.06
2019-05-10T02:19:39.044Z,13.06
2019-05-10T02:19:39.642Z,13.06
2019-05-10T02:19:40.245Z,13.14
2019-05-10T02:19:40.843Z,13.09
2019-05-10T02:19:41.442Z,13.06
2019-05-10T02:19:42.041Z,13.07
2019-05-10T02:20:36.733Z,13.03
2019-05-10T02:20:37.352Z,13.02
2019-05-10T02:20:37.893Z,13.06
2019-05-10T02:20:38.494Z,13.09
2019-05-10T02:20:39.093Z,13.07
2019-05-10T02:20:39.693Z,13.06
2019-05-10T02:21:34.349Z,13.03
2019-05-10T02:21:34.945Z,13.06
2019-05-10T02:21:35.549Z,13.07
2019-05-10T02:21:36.147Z,13.02
2019-05-10T02:21:36.746Z,13.07
2019-05-10T02:22:32.002Z,13.06
2019-05-10T02:22:32.598Z,13.09
2019-05-10T02:22:33.197Z,13.07
2019-05-10T02:22:33.797Z,13.09
2019-05-10T02:22:34.400Z,13.07
2019-05-10T02:22:34.997Z,13.04
2019-05-10T02:23:29.651Z,13.06
2019-05-10T02:23:30.249Z,13.17
2019-05-10T02:23:30.848Z,12.97
2019-05-10T02:23:31.448Z,13.06
2019-05-10T02:23:32.097Z,13.03
2019-05-10T02:23:32.649Z,13.03
2019-05-10T02:24:27.303Z,13.02
2019-05-10T02:24:27.902Z,13.03
2019-05-10T02:24:28.502Z,13.06
2019-05-10T02:24:29.101Z,13.03
2019-05-10T02:24:29.705Z,13.00
2019-05-10T02:25:24.982Z,12.99
2019-05-10T02:25:25.555Z,13.06
2019-05-10T02:25:26.159Z,13.03
2019-05-10T02:25:26.752Z,13.03
2019-05-10T02:25:27.462Z,13.06
2019-05-10T02:25:27.951Z,13.07
2019-05-10T02:26:22.610Z,13.03
2019-05-10T02:26:23.205Z,12.95
2019-05-10T02:26:23.805Z,13.04
2019-05-10T02:26:24.404Z,13.11
2019-05-10T02:26:25.005Z,13.06
2019-05-10T02:26:25.604Z,13.09
2019-05-10T02:27:20.262Z,13.09
2019-05-10T02:27:20.856Z,13.07
2019-05-10T02:27:21.455Z,13.02
2019-05-10T02:27:22.056Z,13.04
2019-05-10T02:27:22.657Z,13.02
2019-05-10T02:28:17.911Z,12.99
2019-05-10T02:28:18.509Z,13.03
2019-05-10T02:28:19.108Z,13.09
2019-05-10T02:28:19.708Z,13.15
2019-05-10T02:28:20.308Z,13.09
2019-05-10T02:28:20.919Z,12.99
2019-05-10T02:29:15.562Z,13.06
2019-05-10T02:29:16.160Z,13.09
2019-05-10T02:29:16.760Z,13.11
2019-05-10T02:29:17.361Z,13.06
2019-05-10T02:29:17.960Z,13.02
2019-05-10T02:29:18.560Z,13.07
2019-05-10T02:30:13.239Z,13.02
2019-05-10T02:30:13.858Z,13.07
2019-05-10T02:30:14.416Z,13.06
2019-05-10T02:30:15.011Z,13.06
2019-05-10T02:30:15.614Z,13.07
2019-05-10T02:31:10.866Z,13.00
2019-05-10T02:31:11.464Z,13.06
2019-05-10T02:31:12.063Z,13.07
2019-05-10T02:31:12.665Z,13.04
2019-05-10T02:31:13.264Z,13.00
2019-05-10T02:31:13.865Z,12.95
2019-05-10T02:32:08.519Z,13.02
2019-05-10T02:32:09.116Z,12.95
2019-05-10T02:32:09.715Z,13.04
2019-05-10T02:32:10.327Z,13.02
2019-05-10T02:32:10.915Z,12.97
2019-05-10T02:32:11.515Z,13.04
2019-05-10T02:33:06.169Z,13.04
2019-05-10T02:33:06.767Z,13.02
2019-05-10T02:33:07.366Z,12.96
2019-05-10T02:33:07.973Z,13.00
2019-05-10T02:33:08.566Z,13.04
2019-05-10T02:34:03.314Z,13.03
2019-05-10T02:34:03.909Z,13.03
2019-05-10T02:34:04.509Z,13.03
2019-05-10T02:34:05.107Z,13.06
2019-05-10T02:34:05.709Z,12.99
2019-05-10T02:34:06.308Z,13.04
2019-05-10T02:35:01.577Z,13.04
2019-05-10T02:35:02.174Z,12.96
2019-05-10T02:35:02.808Z,13.00
2019-05-10T02:35:03.370Z,13.06
2019-05-10T02:35:03.981Z,13.03
2019-05-10T02:35:04.571Z,13.00
2019-05-10T02:35:59.254Z,13.04
2019-05-10T02:35:59.824Z,13.06
2019-05-10T02:36:00.429Z,12.93
2019-05-10T02:36:01.024Z,13.04
2019-05-10T02:36:01.631Z,13.00
2019-05-10T02:36:56.894Z,13.00
2019-05-10T02:36:57.477Z,13.04
2019-05-10T02:36:58.081Z,13.02
2019-05-10T02:36:58.675Z,13.07
2019-05-10T02:36:59.275Z,13.03
2019-05-10T02:36:59.875Z,13.02
2019-05-10T02:37:54.551Z,13.06
2019-05-10T02:37:55.127Z,12.97
2019-05-10T02:37:55.728Z,13.00
2019-05-10T02:37:56.327Z,12.99
2019-05-10T02:37:56.927Z,13.00
2019-05-10T02:37:57.536Z,13.02
2019-05-10T02:38:52.185Z,12.93
2019-05-10T02:38:52.779Z,13.00
2019-05-10T02:38:53.385Z,13.03
2019-05-10T02:38:53.979Z,13.03
2019-05-10T02:38:54.581Z,12.97
2019-05-10T02:39:49.840Z,12.95
2019-05-10T02:39:50.431Z,12.99
2019-05-10T02:39:51.034Z,12.97
2019-05-10T02:39:51.632Z,12.99
2019-05-10T02:39:52.231Z,12.99
2019-05-10T02:39:52.832Z,12.96
2019-05-10T02:40:47.542Z,12.99
2019-05-10T02:40:48.084Z,13.00
2019-05-10T02:40:48.687Z,13.00
2019-05-10T02:40:49.285Z,13.00
2019-05-10T02:40:49.883Z,12.99
2019-05-10T02:40:50.484Z,12.96
2019-05-10T02:41:45.141Z,13.00
2019-05-10T02:41:45.736Z,12.92
2019-05-10T02:41:46.338Z,12.96
2019-05-10T02:41:46.938Z,12.95
2019-05-10T02:41:47.535Z,12.99
2019-05-10T02:42:42.789Z,12.95
2019-05-10T02:42:43.392Z,12.96
2019-05-10T02:42:43.988Z,12.99
2019-05-10T02:42:44.595Z,13.02
2019-05-10T02:42:45.186Z,13.00
2019-05-10T02:42:45.787Z,13.06
2019-05-10T02:43:40.441Z,12.96
2019-05-10T02:43:41.040Z,13.02
2019-05-10T02:43:41.638Z,12.97
2019-05-10T02:43:42.270Z,13.06
2019-05-10T02:43:42.839Z,13.00
2019-05-10T02:43:43.451Z,13.06
2019-05-10T02:44:38.093Z,12.99
2019-05-10T02:44:38.691Z,13.02
2019-05-10T02:44:39.296Z,12.93
2019-05-10T02:44:39.891Z,13.02
2019-05-10T02:44:40.489Z,12.96
2019-05-10T02:45:35.768Z,12.93
2019-05-10T02:45:36.344Z,13.02
2019-05-10T02:45:36.942Z,12.99
2019-05-10T02:45:37.541Z,12.85
2019-05-10T02:45:38.141Z,12.84
2019-05-10T02:45:38.755Z,12.96
2019-05-10T02:46:33.402Z,12.88
2019-05-10T02:46:34.010Z,12.97
2019-05-10T02:46:34.600Z,12.96
2019-05-10T02:46:35.194Z,13.00
2019-05-10T02:46:35.792Z,12.97
2019-05-10T02:46:36.396Z,12.88
2019-05-10T02:47:31.051Z,12.99
2019-05-10T02:47:31.645Z,12.96
2019-05-10T02:47:32.244Z,12.99
2019-05-10T02:47:32.845Z,12.95
2019-05-10T02:47:33.447Z,12.99
2019-05-10T02:48:28.701Z,12.99
2019-05-10T02:48:29.296Z,12.93
2019-05-10T02:48:29.897Z,13.00
2019-05-10T02:48:30.497Z,13.03
2019-05-10T02:48:31.128Z,12.99
2019-05-10T02:48:31.696Z,12.97
2019-05-10T02:49:26.360Z,12.99